Time;durP1;ratioP1;P1;durP2;ratioP2;P2;SDS_P1;SDS_P2;PMS_P1;PMS_P2;Temp;Humidity;BMP_temperature;BMP_pressure;BME280_temperature;BME280_humidity;BME280_pressure;Samples;Min_cycle;Max_cycle;Signal;HPM_P1;HPM_P2
2023/09/17 00:01:10;;;;;;;;;;;;;;;25.38;46.26;95581.31;6204705;28;109104;-67
2023/09/17 00:04:12;;;;;;;;;;;;;;;25.38;45.98;95571.38;6197493;28;109374;-66
2023/09/17 00:07:16;;;;;;;;;;;;;;;25.37;46.22;95575.16;6186081;28;109211;-67
2023/09/17 00:10:20;;;;;;;;;;;;;;;25.37;46.09;95577.84;6185932;28;109274;-68
2023/09/17 00:13:23;;;;;;;;;;;;;;;25.38;46.13;95575.94;6177300;28;110078;-64
2023/09/17 00:16:31;;;;;;;;;;;;;;;25.37;46.25;95566.31;6210536;28;109364;-66
2023/09/17 00:19:34;;;;;;;;;;;;;;;25.37;46.24;95567.13;6201151;28;108969;-68
2023/09/17 00:22:37;;;;;;;;;;;;;;;25.37;45.92;95569.81;6186096;28;109504;-67
2023/09/17 00:25:42;;;;;;;;;;;;;;;25.37;46.12;95563.63;6175264;28;108946;-66
2023/09/17 00:28:45;;;;;;;;;;;;;;;25.36;46.17;95557.47;6186172;28;109950;-67
2023/09/17 00:31:48;;;;;;;;;;;;;;;25.37;45.99;95547.56;6185072;28;109025;-67
2023/09/17 00:34:51;;;;;;;;;;;;;;;25.37;45.89;95547.56;6196564;28;108973;-68
2023/09/17 00:37:54;;;;;;;;;;;;;;;25.37;46.14;95555.59;6199735;28;109251;-68
2023/09/17 00:41:00;;;;;;;;;;;;;;;25.37;45.98;95550.22;6213735;28;109208;-67
2023/09/17 00:44:04;;;;;;;;;;;;;;;25.36;46.13;95554.00;6214222;28;109078;-67
2023/09/17 00:47:08;;;;;;;;;;;;;;;25.35;46.10;95544.41;6206131;28;109259;-65
2023/09/17 00:50:11;;;;;;;;;;;;;;;25.36;45.93;95557.47;6200773;28;108987;-67
2023/09/17 00:53:16;;;;;;;;;;;;;;;25.37;45.92;95547.56;6190441;28;110146;-67
2023/09/17 00:56:21;;;;;;;;;;;;;;;25.37;46.33;95542.19;6211732;28;109649;-70
2023/09/17 00:59:25;;;;;;;;;;;;;;;25.36;46.10;95546.78;6203141;28;109060;-67
2023/09/17 01:02:28;;;;;;;;;;;;;;;25.36;46.15;95552.13;6213667;28;109644;-67
2023/09/17 01:05:36;;;;;;;;;;;;;;;25.35;45.87;95553.22;6213836;28;109204;-68
2023/09/17 01:08:40;;;;;;;;;;;;;;;25.35;45.92;95547.88;6214049;28;108865;-66
2023/09/17 01:11:45;;;;;;;;;;;;;;;25.35;46.26;95549.75;6203556;27;110342;-66
2023/09/17 01:14:48;;;;;;;;;;;;;;;25.35;45.99;95545.19;6205253;28;110177;-69
2023/09/17 01:17:54;;;;;;;;;;;;;;;25.35;45.89;95544.41;6189886;28;109679;-66
2023/09/17 01:21:00;;;;;;;;;;;;;;;25.36;46.12;95545.97;6215822;28;111167;-66
2023/09/17 01:24:13;;;;;;;;;;;;;;;25.35;45.94;95528.31;6208627;28;109078;-67
2023/09/17 01:27:19;;;;;;;;;;;;;;;25.35;45.98;95539.03;6214529;28;110240;-67
2023/09/17 01:30:22;;;;;;;;;;;;;;;25.35;46.00;95533.69;6213486;28;108827;-67
2023/09/17 01:33:25;;;;;;;;;;;;;;;25.35;45.90;95534.47;6203572;28;110112;-67
2023/09/17 01:36:33;;;;;;;;;;;;;;;25.33;45.92;95536.66;6214047;28;110253;-68
2023/09/17 01:39:40;;;;;;;;;;;;;;;25.36;46.14;95540.63;6213653;28;109261;-67
2023/09/17 01:42:46;;;;;;;;;;;;;;;25.35;45.93;95533.69;6213850;28;110095;-66
2023/09/17 01:45:50;;;;;;;;;;;;;;;25.35;46.02;95544.41;6187121;27;109388;-68
2023/09/17 01:48:54;;;;;;;;;;;;;;;25.36;45.78;95541.41;6197978;28;109389;-67
2023/09/17 01:51:57;;;;;;;;;;;;;;;25.35;45.92;95536.38;6188674;28;108964;-69
2023/09/17 01:55:02;;;;;;;;;;;;;;;25.35;46.31;95542.50;6191358;28;109214;-65
2023/09/17 01:58:07;;;;;;;;;;;;;;;25.35;45.82;95534.47;6208353;28;110180;-67
2023/09/17 02:01:10;;;;;;;;;;;;;;;25.34;45.94;95537.44;6196123;28;109213;-67
2023/09/17 02:04:13;;;;;;;;;;;;;;;25.34;45.77;95537.44;6188459;28;110111;-66
2023/09/17 02:07:16;;;;;;;;;;;;;;;25.34;46.03;95537.44;6178820;28;110694;-66
2023/09/17 02:10:20;;;;;;;;;;;;;;;25.34;45.75;95542.81;6198406;28;111204;-69
2023/09/17 02:13:24;;;;;;;;;;;;;;;25.33;46.06;95542.00;6213879;28;109989;-69
2023/09/17 02:16:27;;;;;;;;;;;;;;;25.34;45.93;95548.94;6193775;28;109273;-69
2023/09/17 02:19:30;;;;;;;;;;;;;;;25.33;45.82;95546.59;6187904;28;109068;-67
2023/09/17 02:22:34;;;;;;;;;;;;;;;25.32;46.07;95551.16;6188004;28;109038;-67
2023/09/17 02:25:36;;;;;;;;;;;;;;;25.34;46.21;95554.31;6199485;28;109200;-67
2023/09/17 02:28:41;;;;;;;;;;;;;;;25.32;46.11;95555.72;6209462;28;109026;-65
2023/09/17 02:31:44;;;;;;;;;;;;;;;25.31;46.20;95544.22;6186506;28;108998;-66
2023/09/17 02:34:47;;;;;;;;;;;;;;;25.32;45.82;95550.38;6187240;28;109019;-68
2023/09/17 02:37:50;;;;;;;;;;;;;;;25.33;46.10;95554.63;6188016;28;109214;-67
2023/09/17 02:40:53;;;;;;;;;;;;;;;25.32;46.11;95547.69;6177956;28;108807;-66
2023/09/17 02:43:59;;;;;;;;;;;;;;;25.32;46.00;95550.38;6187476;28;109116;-66
2023/09/17 02:47:02;;;;;;;;;;;;;;;25.30;46.04;95542.66;6187673;28;109105;-67
2023/09/17 02:50:06;;;;;;;;;;;;;;;25.33;45.96;95543.91;6199391;28;109986;-67
2023/09/17 02:53:09;;;;;;;;;;;;;;;25.30;45.86;95548.00;6176767;28;109119;-67
2023/09/17 02:56:11;;;;;;;;;;;;;;;25.30;45.95;95539.19;6187666;28;109983;-66
2023/09/17 02:59:16;;;;;;;;;;;;;;;25.29;46.02;95537.59;6187496;28;109186;-66
2023/09/17 03:02:19;;;;;;;;;;;;;;;25.29;45.78;95535.72;6209793;28;109404;-66
2023/09/17 03:05:22;;;;;;;;;;;;;;;25.31;45.92;95533.50;6202338;28;110602;-67
2023/09/17 03:08:26;;;;;;;;;;;;;;;25.29;45.98;95525.00;6211778;28;108805;-68
2023/09/17 03:11:29;;;;;;;;;;;;;;;25.29;46.01;95530.34;6195874;28;108845;-67
2023/09/17 03:14:33;;;;;;;;;;;;;;;25.29;45.75;95527.69;6181296;28;109194;-68
2023/09/17 03:17:36;;;;;;;;;;;;;;;25.29;46.12;95530.34;6181858;28;110776;-67
2023/09/17 03:20:40;;;;;;;;;;;;;;;25.28;45.91;95525.31;6212588;28;109111;-68
2023/09/17 03:23:42;;;;;;;;;;;;;;;25.28;46.00;95530.66;6187543;28;109308;-67
2023/09/17 03:26:45;;;;;;;;;;;;;;;25.28;45.97;95533.34;6176772;28;110543;-74
2023/09/17 03:29:49;;;;;;;;;;;;;;;25.29;45.93;95533.03;6187240;28;109993;-82
2023/09/17 03:32:53;;;;;;;;;;;;;;;25.27;45.86;95532.56;6187172;28;109188;-71
2023/09/17 03:36:06;;;;;;;;;;;;;;;25.28;46.07;95534.13;6197722;28;110011;-71
2023/09/17 03:39:09;;;;;;;;;;;;;;;25.29;45.75;95529.56;6201027;28;110147;-68
2023/09/17 03:42:12;;;;;;;;;;;;;;;25.27;46.11;95535.25;6211488;28;110119;-67
2023/09/17 03:45:17;;;;;;;;;;;;;;;25.28;45.74;95538.72;6210879;28;109117;-68
2023/09/17 03:48:21;;;;;;;;;;;;;;;25.27;45.98;95531.78;6208209;28;109032;-67
2023/09/17 03:51:24;;;;;;;;;;;;;;;25.28;45.85;95538.72;6203932;28;110157;-67
2023/09/17 03:54:27;;;;;;;;;;;;;;;25.26;45.81;95533.66;6186377;28;109841;-68
2023/09/17 03:57:30;;;;;;;;;;;;;;;25.27;46.11;95542.50;6208716;28;109817;-69
2023/09/17 04:00:34;;;;;;;;;;;;;;;25.26;45.98;95535.56;6195499;28;109234;-66
2023/09/17 04:03:37;;;;;;;;;;;;;;;25.26;45.80;95535.56;6186323;28;110187;-67
2023/09/17 04:06:40;;;;;;;;;;;;;;;25.25;46.01;95540.13;6185365;28;109189;-68
2023/09/17 04:09:43;;;;;;;;;;;;;;;25.25;46.13;95547.38;6186338;28;109135;-68
2023/09/17 04:12:47;;;;;;;;;;;;;;;25.25;45.85;95555.41;6198056;28;109988;-69
2023/09/17 04:15:52;;;;;;;;;;;;;;;25.25;45.93;95547.38;6209698;28;109200;-68
2023/09/17 04:18:55;;;;;;;;;;;;;;;25.25;46.04;95556.19;6211088;28;111112;-67
2023/09/17 04:21:58;;;;;;;;;;;;;;;25.25;45.90;95560.78;6194686;28;108892;-68
2023/09/17 04:25:01;;;;;;;;;;;;;;;25.26;45.80;95557.00;6175743;28;109232;-67
2023/09/17 04:28:05;;;;;;;;;;;;;;;25.25;46.16;95558.09;6186649;28;110156;-68
2023/09/17 04:31:09;;;;;;;;;;;;;;;25.24;46.07;95567.22;6194319;28;109016;-69
2023/09/17 04:34:12;;;;;;;;;;;;;;;25.23;45.89;95561.09;6205716;28;110465;-65
2023/09/17 04:37:19;;;;;;;;;;;;;;;25.24;45.87;95559.19;6203626;28;109244;-68
2023/09/17 04:40:25;;;;;;;;;;;;;;;25.24;45.82;95565.34;6210110;28;108612;-66
2023/09/17 04:43:28;;;;;;;;;;;;;;;25.24;45.87;95561.88;6210139;28;108975;-70
2023/09/17 04:46:33;;;;;;;;;;;;;;;25.25;45.88;95569.59;6199285;28;109385;-68
2023/09/17 04:49:37;;;;;;;;;;;;;;;25.24;45.92;95559.19;6210104;28;108974;-67
2023/09/17 04:52:40;;;;;;;;;;;;;;;25.23;46.07;95566.44;6189942;28;108972;-67
2023/09/17 04:55:44;;;;;;;;;;;;;;;25.23;45.91;95562.97;6188592;28;108990;-68
2023/09/17 04:58:47;;;;;;;;;;;;;;;25.24;46.01;95575.28;6199430;28;109042;-81
2023/09/17 05:01:51;;;;;;;;;;;;;;;25.25;45.75;95571.50;6210416;28;111513;-67
2023/09/17 05:04:54;;;;;;;;;;;;;;;25.24;46.16;95570.69;6209771;28;109065;-67
2023/09/17 05:07:57;;;;;;;;;;;;;;;25.23;46.07;95573.69;6203853;28;109289;-69
2023/09/17 05:11:00;;;;;;;;;;;;;;;25.23;45.74;95568.34;6203339;28;109040;-67
2023/09/17 05:14:03;;;;;;;;;;;;;;;25.21;46.04;95576.69;6208863;28;108990;-66
2023/09/17 05:17:07;;;;;;;;;;;;;;;25.23;45.80;95574.47;6209333;28;109552;-67
2023/09/17 05:20:11;;;;;;;;;;;;;;;25.22;45.99;95567.53;6199518;28;108950;-67
2023/09/17 05:23:14;;;;;;;;;;;;;;;25.24;46.13;95564.56;6209581;28;110047;-66
2023/09/17 05:26:17;;;;;;;;;;;;;;;25.23;45.91;95568.34;6203613;28;109216;-67
2023/09/17 05:29:20;;;;;;;;;;;;;;;25.21;46.04;95571.31;6189954;28;111260;-67
2023/09/17 05:32:24;;;;;;;;;;;;;;;25.22;45.93;95574.78;6178822;28;113070;-68
2023/09/17 05:35:28;;;;;;;;;;;;;;;25.22;45.92;95566.75;6188717;28;109025;-68
2023/09/17 05:38:31;;;;;;;;;;;;;;;25.21;45.85;95567.88;6188440;28;110322;-67
2023/09/17 05:41:34;;;;;;;;;;;;;;;25.21;46.22;95567.88;6188878;28;109079;-67
2023/09/17 05:44:37;;;;;;;;;;;;;;;25.23;45.75;95576.38;6178170;28;109230;-66
2023/09/17 05:47:43;;;;;;;;;;;;;;;25.22;45.73;95566.75;6188890;28;109217;-68
2023/09/17 05:50:46;;;;;;;;;;;;;;;25.23;46.07;95561.09;6208015;28;109304;-68
2023/09/17 05:53:52;;;;;;;;;;;;;;;25.24;46.04;95567.22;6182594;28;110864;-63
2023/09/17 05:56:55;;;;;;;;;;;;;;;25.24;45.73;95567.22;6195574;28;109010;-67
2023/09/17 05:59:58;;;;;;;;;;;;;;;25.24;45.81;95559.97;6213254;28;108993;-68
2023/09/17 06:03:03;;;;;;;;;;;;;;;25.25;46.02;95555.41;6212738;28;109251;-67
2023/09/17 06:06:06;;;;;;;;;;;;;;;25.26;45.98;95562.34;6199446;28;109517;-67
2023/09/17 06:09:09;;;;;;;;;;;;;;;25.26;45.45;95575.75;6187252;28;109108;-68
2023/09/17 06:12:12;;;;;;;;;;;;;;;25.25;45.72;95572.28;6188556;28;109254;-68
2023/09/17 06:15:15;;;;;;;;;;;;;;;25.25;45.97;95574.94;6187734;28;109081;-67
2023/09/17 06:18:19;;;;;;;;;;;;;;;25.24;46.01;95573.38;6177293;28;109945;-67
2023/09/17 06:21:22;;;;;;;;;;;;;;;25.25;45.82;95580.31;6192536;28;109207;-69
2023/09/17 06:24:25;;;;;;;;;;;;;;;25.24;45.99;95578.72;6212502;28;109392;-68
2023/09/17 06:27:29;;;;;;;;;;;;;;;25.25;45.82;95579.53;6208038;28;110609;-67
2023/09/17 06:30:33;;;;;;;;;;;;;;;25.24;45.87;95577.94;6207477;28;110214;-69
2023/09/17 06:33:37;;;;;;;;;;;;;;;25.25;45.96;95580.31;6212592;28;110782;-68
2023/09/17 06:36:40;;;;;;;;;;;;;;;25.24;45.90;95594.81;6211911;28;109215;-71
2023/09/17 06:39:43;;;;;;;;;;;;;;;25.26;45.81;95599.84;6201799;28;110111;-69
2023/09/17 06:42:46;;;;;;;;;;;;;;;25.24;45.93;95585.97;6212339;28;110101;-68
2023/09/17 06:45:49;;;;;;;;;;;;;;;25.25;45.83;95600.94;6212271;28;109527;-67
2023/09/17 06:48:53;;;;;;;;;;;;;;;25.24;46.09;95594.03;6212345;28;109501;-68
2023/09/17 06:51:56;;;;;;;;;;;;;;;25.24;46.16;95596.69;6193175;28;109261;-69
2023/09/17 06:54:59;;;;;;;;;;;;;;;25.24;45.75;95597.50;6187248;28;109207;-69
2023/09/17 06:58:02;;;;;;;;;;;;;;;25.24;45.93;95602.06;6187381;28;108944;-67
2023/09/17 07:01:05;;;;;;;;;;;;;;;25.23;46.11;95595.91;6187588;28;109223;-68
2023/09/17 07:04:10;;;;;;;;;;;;;;;25.23;45.94;95600.47;6176827;28;109832;-68
2023/09/17 07:07:15;;;;;;;;;;;;;;;25.24;46.14;95588.66;6187064;28;109983;-67
2023/09/17 07:10:18;;;;;;;;;;;;;;;25.24;46.06;95591.34;6186495;28;109556;-67
2023/09/17 07:13:21;;;;;;;;;;;;;;;25.25;45.93;95585.66;6182593;28;110378;-68
2023/09/17 07:16:24;;;;;;;;;;;;;;;25.27;45.87;95588.81;6182405;28;110226;-68
2023/09/17 07:19:29;;;;;;;;;;;;;;;25.31;45.75;95591.66;6195641;28;109114;-67
2023/09/17 07:22:32;;;;;;;;;;;;;;;25.35;45.49;95598.00;6200330;28;109345;-67
2023/09/17 07:25:35;;;;;;;;;;;;;;;25.37;45.67;95595.78;6175559;28;109474;-68
2023/09/17 07:28:37;;;;;;;;;;;;;;;25.36;45.34;95600.34;6187248;28;110255;-67
2023/09/17 07:31:41;;;;;;;;;;;;;;;25.39;45.63;95601.66;6187226;28;109141;-67
2023/09/17 07:34:46;;;;;;;;;;;;;;;25.42;46.43;95602.91;6186959;28;109009;-65
2023/09/17 07:37:49;;;;;;;;;;;;;;;25.54;45.57;95613.78;6188693;28;110135;-68
2023/09/17 07:40:53;;;;;;;;;;;;;;;25.53;45.55;95606.84;6210339;28;108750;-67
2023/09/17 07:43:56;;;;;;;;;;;;;;;25.57;45.63;95613.97;6190587;28;110233;-68
2023/09/17 07:46:59;;;;;;;;;;;;;;;25.58;45.48;95615.53;6186400;28;109032;-69
2023/09/17 07:50:03;;;;;;;;;;;;;;;25.57;45.41;95618.53;6204760;28;108976;-67
2023/09/17 07:53:07;;;;;;;;;;;;;;;25.56;45.71;95620.44;6196972;28;109027;-67
2023/09/17 07:56:10;;;;;;;;;;;;;;;25.59;45.54;95627.84;6186257;28;109064;-67
2023/09/17 07:59:13;;;;;;;;;;;;;;;25.59;45.98;95622.47;6175751;28;109422;-66
2023/09/17 08:02:16;;;;;;;;;;;;;;;25.62;45.29;95613.81;6186231;28;109336;-67
2023/09/17 08:05:20;;;;;;;;;;;;;;;25.69;45.42;95613.31;6186057;28;108909;-66
2023/09/17 08:08:23;;;;;;;;;;;;;;;25.72;45.44;95606.56;6201142;28;109252;-66
2023/09/17 08:11:29;;;;;;;;;;;;;;;25.78;45.38;95599.94;6200378;28;109077;-66
2023/09/17 08:14:34;;;;;;;;;;;;;;;25.79;45.00;95609.56;6186237;28;110079;-68
2023/09/17 08:17:37;;;;;;;;;;;;;;;25.82;44.83;95607.03;6185692;28;109042;-70
2023/09/17 08:20:42;;;;;;;;;;;;;;;25.80;45.06;95609.22;6204181;28;110064;-67
2023/09/17 08:23:45;;;;;;;;;;;;;;;25.80;45.35;95616.50;6182930;28;109200;-67
2023/09/17 08:26:49;;;;;;;;;;;;;;;25.76;45.34;95610.97;6187244;28;110300;-65
2023/09/17 08:29:51;;;;;;;;;;;;;;;25.76;45.21;95618.22;6210630;28;109190;-67
2023/09/17 08:32:54;;;;;;;;;;;;;;;25.76;45.28;95616.34;6204924;28;109182;-66
2023/09/17 08:36:00;;;;;;;;;;;;;;;25.75;45.12;95612.06;6206124;28;109045;-66
2023/09/17 08:39:06;;;;;;;;;;;;;;;25.74;45.38;95610.50;6209932;28;109236;-66
2023/09/17 08:42:09;;;;;;;;;;;;;;;25.75;45.19;95600.56;6206802;28;110325;-66
2023/09/17 08:45:13;;;;;;;;;;;;;;;25.74;45.02;95599.78;6176276;28;110125;-66
2023/09/17 08:48:17;;;;;;;;;;;;;;;25.75;45.31;95600.56;6197721;28;109090;-67
2023/09/17 08:51:23;;;;;;;;;;;;;;;25.75;45.14;95601.34;6210185;28;109204;-67
2023/09/17 08:54:26;;;;;;;;;;;;;;;25.74;45.25;95599.78;6189365;28;110069;-67
2023/09/17 08:57:31;;;;;;;;;;;;;;;25.75;45.16;95595.19;6174628;28;109236;-68
2023/09/17 09:00:36;;;;;;;;;;;;;;;25.73;45.08;95594.72;6185306;28;109055;-67
2023/09/17 09:03:40;;;;;;;;;;;;;;;25.74;45.28;95593.63;6204162;28;109207;-68
2023/09/17 09:06:46;;;;;;;;;;;;;;;25.73;45.28;95592.06;6209680;28;109738;-66
2023/09/17 09:09:49;;;;;;;;;;;;;;;25.73;45.38;95589.38;6208354;28;109678;-66
2023/09/17 09:12:52;;;;;;;;;;;;;;;25.71;45.49;95588.88;6213145;28;109143;-66
2023/09/17 09:15:55;;;;;;;;;;;;;;;25.70;45.24;95588.09;6213482;28;109096;-67
2023/09/17 09:18:58;;;;;;;;;;;;;;;25.72;45.06;95582.44;6203228;28;109167;-67
2023/09/17 09:22:03;;;;;;;;;;;;;;;25.73;45.21;95582.13;6213581;28;109095;-67
2023/09/17 09:25:08;;;;;;;;;;;;;;;25.74;45.27;95582.91;6188966;28;109360;-66
2023/09/17 09:28:11;;;;;;;;;;;;;;;25.76;45.30;95576.13;6189405;28;110132;-67
2023/09/17 09:31:14;;;;;;;;;;;;;;;25.78;45.08;95579.28;6179241;28;109440;-66
2023/09/17 09:34:18;;;;;;;;;;;;;;;25.79;45.18;95574.69;6207181;28;109052;-66
2023/09/17 09:37:23;;;;;;;;;;;;;;;25.77;44.99;95577.69;6212005;28;109107;-67
2023/09/17 09:40:26;;;;;;;;;;;;;;;25.79;45.27;95580.06;6188812;28;109079;-65
2023/09/17 09:43:30;;;;;;;;;;;;;;;25.79;44.84;95577.38;6189952;28;109004;-66
2023/09/17 09:46:33;;;;;;;;;;;;;;;25.81;45.06;95581.31;6213357;28;109019;-65
2023/09/17 09:49:39;;;;;;;;;;;;;;;25.80;45.07;95582.41;6219616;28;109655;-66
2023/09/17 09:52:44;;;;;;;;;;;;;;;25.82;45.03;95584.78;6225211;28;109053;-66
2023/09/17 09:55:47;;;;;;;;;;;;;;;25.84;45.15;95582.56;6213663;28;110259;-66
2023/09/17 09:58:51;;;;;;;;;;;;;;;25.86;44.82;95586.50;6213487;28;110196;-68
2023/09/17 10:01:54;;;;;;;;;;;;;;;25.87;44.92;95582.72;6213218;28;109158;-65
2023/09/17 10:04:57;;;;;;;;;;;;;;;25.87;45.13;95581.94;6202796;28;109650;-66
2023/09/17 10:08:04;;;;;;;;;;;;;;;25.86;44.86;95575.00;6213026;28;109236;-66
2023/09/17 10:11:08;;;;;;;;;;;;;;;25.85;44.98;95578.78;6213687;28;110052;-67
2023/09/17 10:14:11;;;;;;;;;;;;;;;25.85;44.97;95582.25;6211295;28;108932;-66
2023/09/17 10:17:17;;;;;;;;;;;;;;;25.83;45.02;95581.00;6202132;28;109152;-66
2023/09/17 10:20:21;;;;;;;;;;;;;;;25.83;45.02;95575.63;6200965;28;109124;-66
2023/09/17 10:23:26;;;;;;;;;;;;;;;25.82;45.27;95585.56;6204903;28;109206;-66
2023/09/17 10:26:32;;;;;;;;;;;;;;;25.83;44.80;95572.94;6182974;28;109149;-65
2023/09/17 10:29:36;;;;;;;;;;;;;;;25.81;45.00;95581.31;6182989;28;109655;-66
2023/09/17 10:32:39;;;;;;;;;;;;;;;25.80;44.85;95573.59;6187942;28;109194;-66
2023/09/17 10:35:44;;;;;;;;;;;;;;;25.81;45.05;95577.84;6188186;28;109381;-67
2023/09/17 10:38:48;;;;;;;;;;;;;;;25.78;44.85;95576.59;6178420;28;111205;-68
2023/09/17 10:41:52;;;;;;;;;;;;;;;25.79;45.19;95580.06;6187595;28;109047;-66
2023/09/17 10:44:56;;;;;;;;;;;;;;;25.80;45.06;95574.38;6187156;28;110200;-67
2023/09/17 10:48:00;;;;;;;;;;;;;;;25.80;44.93;95574.38;6187786;28;109236;-66
2023/09/17 10:51:03;;;;;;;;;;;;;;;25.82;45.15;95569.47;6195207;28;110037;-67
2023/09/17 10:54:07;;;;;;;;;;;;;;;25.82;45.08;95568.69;6212041;28;109078;-69
2023/09/17 10:57:14;;;;;;;;;;;;;;;25.82;45.10;95561.44;6212232;28;108803;-67
2023/09/17 11:00:18;;;;;;;;;;;;;;;25.82;45.02;95560.66;6207185;28;109127;-66
2023/09/17 11:03:24;;;;;;;;;;;;;;;25.81;45.23;95554.50;6201107;28;109802;-67
2023/09/17 11:06:28;;;;;;;;;;;;;;;25.80;45.08;95544.88;6187641;28;109611;-68
2023/09/17 11:09:33;;;;;;;;;;;;;;;25.82;45.08;95539.19;6187166;28;109130;-67
2023/09/17 11:12:36;;;;;;;;;;;;;;;25.81;44.84;95534.94;6176314;28;109159;-67
2023/09/17 11:15:40;;;;;;;;;;;;;;;25.82;45.08;95528.47;6209203;28;109888;-67
2023/09/17 11:18:46;;;;;;;;;;;;;;;25.81;45.05;95529.59;6204207;28;109047;-67
2023/09/17 11:21:49;;;;;;;;;;;;;;;25.80;45.14;95528.78;6210246;28;109227;-67
2023/09/17 11:24:56;;;;;;;;;;;;;;;25.80;45.10;95528.00;6182407;28;112565;-67
2023/09/17 11:27:58;;;;;;;;;;;;;;;25.81;44.96;95525.00;6187633;28;109296;-66
2023/09/17 11:31:03;;;;;;;;;;;;;;;25.81;45.04;95522.31;6186666;28;108980;-67
2023/09/17 11:34:07;;;;;;;;;;;;;;;25.82;45.06;95513.19;6196742;28;108800;-67
2023/09/17 11:37:10;;;;;;;;;;;;;;;25.83;45.10;95513.97;6203045;28;110553;-67
2023/09/17 11:40:15;;;;;;;;;;;;;;;25.82;45.13;95507.81;6192652;28;109180;-68
2023/09/17 11:43:17;;;;;;;;;;;;;;;25.82;45.29;95510.50;6189147;28;109430;-67
2023/09/17 11:46:21;;;;;;;;;;;;;;;25.84;45.28;95504.81;6200161;27;108978;-66
2023/09/17 11:49:24;;;;;;;;;;;;;;;25.71;45.04;95476.28;6202446;28;109078;-66
2023/09/17 11:52:27;;;;;;;;;;;;;;;25.83;44.97;95503.22;6211261;28;109482;-67
2023/09/17 11:55:32;;;;;;;;;;;;;;;25.81;45.38;95497.41;6190770;28;109101;-67
2023/09/17 11:58:36;;;;;;;;;;;;;;;25.82;45.20;95499.75;6180377;28;110217;-66
2023/09/17 12:01:41;;;;;;;;;;;;;;;25.81;45.07;95487.47;6211320;28;110029;-67
2023/09/17 12:04:44;;;;;;;;;;;;;;;25.81;44.86;95497.41;6198181;28;109876;-67
2023/09/17 12:07:48;;;;;;;;;;;;;;;25.83;44.99;95495.19;6186781;28;108964;-68
2023/09/17 12:14:24;;;;;;;;;;;;;;;25.84;44.93;95483.34;6207659;28;109650;-66
2023/09/17 12:17:28;;;;;;;;;;;;;;;25.83;45.17;95487.94;6210064;28;109051;-67
2023/09/17 12:20:56;;;;;;;;;;;;;;;25.82;45.05;95489.03;6212710;27;109100;-66
2023/09/17 12:24:05;;;;;;;;;;;;;;;25.82;45.10;95481.00;6236317;28;109388;-67
2023/09/17 12:27:29;;;;;;;;;;;;;;;25.85;44.96;95475.00;6236135;28;109248;-67
2023/09/17 12:30:32;;;;;;;;;;;;;;;25.84;45.06;95472.63;6198561;28;108992;-67
2023/09/17 12:33:35;;;;;;;;;;;;;;;25.81;45.05;95473.28;6175161;28;109842;-67
2023/09/17 12:36:39;;;;;;;;;;;;;;;25.80;45.23;95461.75;6189120;28;109302;-68
2023/09/17 12:39:43;;;;;;;;;;;;;;;25.80;45.20;95469.03;6199805;28;110147;-72
2023/09/17 12:42:47;;;;;;;;;;;;;;;25.50;47.37;95460.06;6191987;28;109872;-70
2023/09/17 12:45:50;;;;;;;;;;;;;;;25.44;47.64;95456.78;6199803;28;109318;-69
2023/09/17 12:48:53;;;;;;;;;;;;;;;25.44;47.72;95456.78;6200631;28;109339;-71
2023/09/17 12:51:56;;;;;;;;;;;;;;;25.55;46.96;95455.38;6203671;28;109492;-70
2023/09/17 12:55:00;;;;;;;;;;;;;;;25.45;47.39;95455.69;6192080;28;109119;-68
2023/09/17 12:58:07;;;;;;;;;;;;;;;25.65;47.58;95452.31;6200999;28;108850;-66
2023/09/17 13:01:10;;;;;;;;;;;;;;;25.79;47.53;95462.88;6203044;28;110174;-67
2023/09/17 13:04:13;;;;;;;;;;;;;;;25.89;47.89;95453.72;6206658;28;109124;-68
2023/09/17 13:07:17;;;;;;;;;;;;;;;25.90;47.67;95453.38;6202995;28;109238;-68
2023/09/17 13:10:21;;;;;;;;;;;;;;;25.92;47.34;95455.75;6214182;28;109006;-66
2023/09/17 13:13:29;;;;;;;;;;;;;;;25.91;47.62;95446.13;6203233;28;109134;-68
2023/09/17 13:16:33;;;;;;;;;;;;;;;25.96;47.31;95462.03;6188580;28;109514;-65
2023/09/17 13:19:36;;;;;;;;;;;;;;;25.93;47.71;95454.63;6185990;28;109679;-68
2023/09/17 13:22:39;;;;;;;;;;;;;;;25.93;47.60;95452.75;6213697;28;109039;-68
2023/09/17 13:25:42;;;;;;;;;;;;;;;25.95;47.12;95460.47;6197304;28;109727;-68
2023/09/17 13:28:52;;;;;;;;;;;;;;;25.92;47.08;95463.78;6179850;28;108797;-68
2023/09/17 13:31:56;;;;;;;;;;;;;;;25.94;47.07;95469.63;6213694;28;109192;-69
2023/09/17 13:34:59;;;;;;;;;;;;;;;25.93;46.99;95465.38;6209533;28;109011;-68
2023/09/17 13:38:02;;;;;;;;;;;;;;;25.96;46.95;95462.03;6211886;28;109353;-69
2023/09/17 13:41:05;;;;;;;;;;;;;;;25.96;46.94;95454.78;6184761;28;109875;-68
2023/09/17 13:44:09;;;;;;;;;;;;;;;25.92;47.27;95461.13;6188537;28;109525;-68
2023/09/17 13:47:13;;;;;;;;;;;;;;;25.93;47.12;95451.97;6190204;28;109800;-67
2023/09/17 13:50:16;;;;;;;;;;;;;;;25.96;47.23;95445.94;6207749;28;109276;-71
2023/09/17 13:53:19;;;;;;;;;;;;;;;25.98;47.03;95446.41;6202121;28;109604;-68
2023/09/17 13:56:22;;;;;;;;;;;;;;;25.95;47.24;95460.47;6212258;28;109097;-66
2023/09/17 13:59:27;;;;;;;;;;;;;;;25.94;47.48;95448.97;6212491;28;109109;-67
2023/09/17 14:02:30;;;;;;;;;;;;;;;25.96;48.03;95454.00;6207697;28;111082;-68
2023/09/17 14:05:33;;;;;;;;;;;;;;;25.95;47.73;95458.56;6194388;27;109240;-68
2023/09/17 14:08:36;;;;;;;;;;;;;;;25.96;48.73;95462.03;6210349;28;110021;-68
2023/09/17 14:11:39;;;;;;;;;;;;;;;25.98;48.73;95465.97;6201257;28;110584;-68
2023/09/17 14:14:44;;;;;;;;;;;;;;;26.01;48.76;95461.09;6195828;28;109034;-68
2023/09/17 14:17:46;;;;;;;;;;;;;;;26.01;48.94;95464.56;6192183;28;109256;-70
2023/09/17 14:20:49;;;;;;;;;;;;;;;26.01;48.38;95474.50;6223856;28;109403;-67
2023/09/17 14:23:52;;;;;;;;;;;;;;;26.03;48.62;95477.66;6214907;28;108946;-67
2023/09/17 14:26:55;;;;;;;;;;;;;;;26.00;48.61;95487.13;6200521;28;109105;-66
2023/09/17 14:30:02;;;;;;;;;;;;;;;26.03;48.82;95488.38;6205422;28;109098;-71
2023/09/17 14:33:05;;;;;;;;;;;;;;;26.00;48.61;95492.50;6188133;28;110182;-70
2023/09/17 14:36:08;;;;;;;;;;;;;;;26.00;48.71;95513.97;6199890;28;109235;-65
2023/09/17 14:39:11;;;;;;;;;;;;;;;26.00;48.49;95511.28;6205656;27;109696;-66
2023/09/17 14:42:14;;;;;;;;;;;;;;;25.97;48.77;95527.97;6211968;28;110129;-67
2023/09/17 14:45:18;;;;;;;;;;;;;;;25.95;48.63;95530.19;6191567;28;109323;-67
2023/09/17 14:48:21;;;;;;;;;;;;;;;25.96;48.73;95527.19;6188943;28;109238;-66
2023/09/17 14:51:24;;;;;;;;;;;;;;;25.92;48.43;95530.84;6210736;28;109251;-66
2023/09/17 14:54:27;;;;;;;;;;;;;;;25.81;47.40;95537.63;6211049;28;110163;-66
2023/09/17 14:57:33;;;;;;;;;;;;;;;25.09;48.75;95539.00;6208923;28;109315;-69
2023/09/17 15:00:37;;;;;;;;;;;;;;;25.28;48.09;95536.81;6191833;28;109043;-66
2023/09/17 15:03:40;;;;;;;;;;;;;;;25.44;48.12;95531.81;6212023;28;109258;-68
2023/09/17 15:06:43;;;;;;;;;;;;;;;25.58;47.87;95532.44;6209125;28;109809;-71
2023/09/17 15:09:47;;;;;;;;;;;;;;;25.56;47.76;95525.84;6202822;28;109061;-73
2023/09/17 15:12:50;;;;;;;;;;;;;;;25.60;47.88;95534.81;6193386;28;110365;-71
2023/09/17 15:15:54;;;;;;;;;;;;;;;25.60;47.76;95524.09;6203040;28;109595;-73
2023/09/17 15:18:57;;;;;;;;;;;;;;;25.54;47.46;95526.16;6209964;28;110035;-70
2023/09/17 15:22:00;;;;;;;;;;;;;;;25.35;47.85;95533.69;6205366;28;110162;-71
2023/09/17 15:25:03;;;;;;;;;;;;;;;25.15;48.37;95545.78;6200980;28;109071;-72
2023/09/17 15:28:07;;;;;;;;;;;;;;;25.05;48.67;95535.38;6192606;28;109151;-71
2023/09/17 15:31:11;;;;;;;;;;;;;;;25.13;48.53;95531.13;6204768;28;110135;-67
2023/09/17 15:34:14;;;;;;;;;;;;;;;25.12;48.79;95538.38;6194334;28;109174;-71
2023/09/17 15:37:17;;;;;;;;;;;;;;;25.16;48.67;95547.34;6209618;28;109232;-72
2023/09/17 15:40:20;;;;;;;;;;;;;;;25.20;48.89;95539.47;6205317;28;110190;-71
2023/09/17 15:43:24;;;;;;;;;;;;;;;25.21;48.55;95543.75;7152757;22;111415;-62
2023/09/17 15:46:28;;;;;;;;;;;;;;;25.12;48.67;95546.41;6229499;27;109482;-61